Time;durP1;ratioP1;P1;durP2;ratioP2;P2;SDS_P1;SDS_P2;PMS_P1;PMS_P2;Temp;Humidity;BMP_temperature;BMP_pressure;BME280_temperature;BME280_humidity;BME280_pressure;Samples;Min_cycle;Max_cycle;Signal;HPM_P1;HPM_P2
2022/07/10 00:00:38;;;;;;;2.05;1.10;;;14.70;99.90;;;;;;5014802;28;20045;-87
2022/07/10 00:03:05;;;;;;;3.30;1.45;;;14.70;99.90;;;;;;5030722;28;20427;-87
2022/07/10 00:05:31;;;;;;;2.75;1.52;;;14.70;99.90;;;;;;5014543;28;20050;-87
2022/07/10 00:07:57;;;;;;;2.40;1.00;;;14.60;99.90;;;;;;5030664;28;20049;-87
2022/07/10 00:10:24;;;;;;;3.00;1.15;;;14.70;99.90;;;;;;5047452;28;20046;-87
2022/07/10 00:12:51;;;;;;;1.20;1.10;;;14.60;99.90;;;;;;5014524;28;20049;-86
2022/07/10 00:15:18;;;;;;;2.97;1.30;;;14.60;99.90;;;;;;5047143;28;20183;-88
2022/07/10 00:17:44;;;;;;;7.63;1.30;;;14.60;99.90;;;;;;5047366;28;20120;-87
2022/07/10 00:20:12;;;;;;;1.63;1.00;;;14.90;99.90;;;;;;5014073;28;20376;-87
2022/07/10 00:22:38;;;;;;;3.80;1.30;;;14.50;99.90;;;;;;5030919;28;20045;-87
2022/07/10 00:25:06;;;;;;;2.63;1.20;;;14.50;99.90;;;;;;5013655;28;20411;-87
2022/07/10 00:27:32;;;;;;;1.63;1.52;;;14.50;99.90;;;;;;5025646;28;20172;-87
2022/07/10 00:29:58;;;;;;;1.00;1.00;;;14.50;99.90;;;;;;5046822;28;20061;-88
2022/07/10 00:32:27;;;;;;;2.40;1.00;;;14.40;99.90;;;;;;5033200;28;20098;-87
2022/07/10 00:34:53;;;;;;;1.00;0.90;;;14.40;99.90;;;;;;5034332;28;20079;-87
2022/07/10 00:37:21;;;;;;;2.28;0.93;;;14.50;99.90;;;;;;5050213;28;20041;-87
2022/07/10 00:39:47;;;;;;;2.53;1.50;;;14.40;99.90;;;;;;5034037;28;20143;-87
2022/07/10 00:42:14;;;;;;;1.00;0.90;;;14.40;99.90;;;;;;5016984;28;20045;-87
2022/07/10 00:44:41;;;;;;;1.55;1.25;;;14.40;99.90;;;;;;5001061;28;20088;-87
2022/07/10 00:47:08;;;;;;;1.67;1.13;;;14.30;99.90;;;;;;5017020;28;20048;-87
2022/07/10 00:49:36;;;;;;;2.25;1.00;;;14.20;99.90;;;;;;5017237;28;20511;-87
2022/07/10 00:52:10;;;;;;;2.47;1.30;;;14.20;99.90;;;;;;5016969;28;20063;-87
2022/07/10 00:54:37;;;;;;;2.90;1.35;;;14.30;99.90;;;;;;5016942;28;20491;-87
2022/07/10 00:57:07;;;;;;;3.60;1.30;;;14.20;99.90;;;;;;5049581;28;20502;-88
2022/07/10 00:59:34;;;;;;;1.67;1.52;;;14.20;99.90;;;;;;5033635;28;20055;-86
2022/07/10 01:02:06;;;;;;;6.15;1.40;;;14.20;99.90;;;;;;5033503;28;20132;-90
2022/07/10 01:04:32;;;;;;;2.03;1.42;;;14.20;99.90;;;;;;5033536;28;20052;-87
2022/07/10 01:06:58;;;;;;;3.90;1.98;;;14.20;99.90;;;;;;5033725;28;20435;-87
2022/07/10 01:09:24;;;;;;;1.42;1.25;;;14.10;99.90;;;;;;5016670;28;20086;-87
2022/07/10 01:11:50;;;;;;;2.95;1.42;;;14.10;99.90;;;;;;5033676;28;20499;-87
2022/07/10 01:14:16;;;;;;;2.10;1.60;;;14.20;99.90;;;;;;5033295;28;20466;-87
2022/07/10 01:16:42;;;;;;;;;;;14.20;99.90;;;;;;5033552;28;20045;-87
2022/07/10 01:19:10;;;;;;;4.32;1.65;;;14.20;99.90;;;;;;5049574;28;19928;-87
2022/07/10 01:21:37;;;;;;;1.63;1.20;;;13.40;99.90;;;;;;5000504;28;20103;-87
2022/07/10 01:24:08;;;;;;;2.60;2.03;;;14.20;99.90;;;;;;5016427;28;20091;-89
2022/07/10 01:26:42;;;;;;;2.47;1.80;;;14.20;99.90;;;;;;5016332;28;20049;-87
2022/07/10 01:29:08;;;;;;;1.80;1.42;;;14.20;99.90;;;;;;5049545;28;20060;-87
2022/07/10 01:31:34;;;;;;;2.17;1.02;;;14.20;99.90;;;;;;5016691;28;20437;-87
2022/07/10 01:34:02;;;;;;;5.78;1.33;;;14.20;99.90;;;;;;5016715;28;20054;-87
2022/07/10 01:36:31;;;;;;;6.32;1.85;;;14.20;99.90;;;;;;5049325;28;20045;-86
2022/07/10 01:39:00;;;;;;;2.10;1.23;;;14.10;99.90;;;;;;5033119;28;20144;-87
2022/07/10 01:41:26;;;;;;;2.20;1.30;;;14.10;99.90;;;;;;5015896;28;20484;-87
2022/07/10 01:43:53;;;;;;;1.27;1.10;;;14.10;99.90;;;;;;5015571;28;20056;-87
2022/07/10 01:46:19;;;;;;;5.25;1.30;;;14.10;99.90;;;;;;5049109;28;20056;-87
2022/07/10 01:48:47;;;;;;;1.30;0.88;;;14.00;99.90;;;;;;5032927;28;20046;-87
2022/07/10 01:51:13;;;;;;;1.75;1.38;;;14.00;99.90;;;;;;5032505;28;20123;-87
2022/07/10 01:53:39;;;;;;;1.77;1.20;;;14.00;99.90;;;;;;5016503;28;20480;-87
2022/07/10 01:56:07;;;;;;;2.63;1.30;;;14.00;99.90;;;;;;5032224;28;20362;-89
2022/07/10 01:58:36;;;;;;;3.70;1.15;;;13.00;99.90;;;;;;5049236;28;20053;-87
2022/07/10 02:01:04;;;;;;;2.95;1.55;;;13.90;99.90;;;;;;5032684;28;20140;-87
2022/07/10 02:06:14;;;;;;;5.90;2.45;;;13.90;99.90;;;;;;5018021;28;20041;-87
2022/07/10 02:08:43;;;;;;;5.13;1.80;;;13.90;99.90;;;;;;5016103;28;20147;-86
2022/07/10 02:11:08;;;;;;;5.90;1.73;;;13.90;99.90;;;;;;5015834;28;20119;-89
2022/07/10 02:13:36;;;;;;;5.90;1.90;;;13.90;99.90;;;;;;5015944;28;20095;-88
2022/07/10 02:16:02;;;;;;;1.80;1.23;;;13.80;99.90;;;;;;5049066;28;20057;-88
2022/07/10 02:18:32;;;;;;;3.05;1.63;;;13.80;99.90;;;;;;5031954;28;20049;-87
2022/07/10 02:20:57;;;;;;;1.60;1.15;;;13.80;99.90;;;;;;5032076;28;20480;-87
2022/07/10 02:23:23;;;;;;;2.10;1.00;;;13.80;99.90;;;;;;5015475;28;20051;-87
2022/07/10 02:25:49;;;;;;;3.60;1.73;;;13.70;99.90;;;;;;5015256;28;20487;-86
2022/07/10 02:28:17;;;;;;;3.47;1.10;;;13.70;99.90;;;;;;5015513;28;20084;-87
2022/07/10 02:30:43;;;;;;;1.33;1.10;;;13.60;99.90;;;;;;5048734;28;20081;-87
2022/07/10 02:33:08;;;;;;;4.30;1.37;;;13.70;99.90;;;;;;5015666;28;20061;-87
2022/07/10 02:35:34;;;;;;;1.27;1.17;;;13.40;99.90;;;;;;5014919;28;20056;-87
2022/07/10 02:38:00;;;;;;;1.50;1.00;;;13.50;99.90;;;;;;5032173;28;20046;-87
2022/07/10 02:40:26;;;;;;;1.33;1.00;;;13.60;99.90;;;;;;5031672;28;20045;-87
2022/07/10 02:42:54;;;;;;;5.90;1.10;;;13.50;99.90;;;;;;5032042;28;20238;-88
2022/07/10 02:45:19;;;;;;;7.05;1.20;;;12.60;99.90;;;;;;5031468;28;20398;-87
2022/07/10 02:47:45;;;;;;;1.77;1.10;;;13.50;99.90;;;;;;5031863;28;20038;-87
2022/07/10 02:50:13;;;;;;;2.27;1.03;;;13.40;99.90;;;;;;5048495;28;20045;-87
2022/07/10 02:52:42;;;;;;;4.43;1.13;;;13.40;99.90;;;;;;5048384;28;20124;-87
2022/07/10 02:55:08;;;;;;;1.88;1.30;;;13.30;99.90;;;;;;5030873;28;20138;-87
2022/07/10 02:57:36;;;;;;;3.40;2.17;;;13.30;99.90;;;;;;5031127;28;20131;-87
2022/07/10 03:00:03;;;;;;;5.82;1.65;;;13.30;99.90;;;;;;5031523;28;20060;-87
2022/07/10 03:02:29;;;;;;;;;;;13.20;99.90;;;;;;5031776;28;20044;-87
2022/07/10 03:04:57;;;;;;;1.95;0.80;;;13.20;99.90;;;;;;5031464;28;19921;-87
2022/07/10 03:07:23;;;;;;;3.20;1.50;;;13.10;99.90;;;;;;4998640;28;20458;-87
2022/07/10 03:09:57;;;;;;;4.20;2.00;;;12.90;99.90;;;;;;5031725;28;20068;-87
2022/07/10 03:12:23;;;;;;;2.60;1.37;;;13.20;99.90;;;;;;5014564;28;20483;-87
2022/07/10 03:14:49;;;;;;;2.30;1.20;;;13.70;99.90;;;;;;5015293;28;20049;-87
2022/07/10 03:17:14;;;;;;;1.33;1.23;;;13.10;99.90;;;;;;5031306;28;20046;-87
2022/07/10 03:19:40;;;;;;;2.30;1.83;;;13.20;99.90;;;;;;5014861;28;20045;-87
2022/07/10 03:22:09;;;;;;;3.37;1.20;;;13.20;99.90;;;;;;4998953;28;20059;-87
2022/07/10 03:24:34;;;;;;;3.08;1.15;;;13.20;99.90;;;;;;5031145;28;20085;-87
2022/07/10 03:27:00;;;;;;;2.83;1.30;;;13.20;99.90;;;;;;5071095;28;20092;-87
2022/07/10 03:29:26;;;;;;;5.07;1.23;;;13.20;99.90;;;;;;5037562;28;20094;-87
2022/07/10 03:31:52;;;;;;;2.30;1.43;;;13.20;99.90;;;;;;5021530;28;20056;-86
2022/07/10 03:34:17;;;;;;;2.67;1.33;;;13.20;99.90;;;;;;5038013;28;20178;-86
2022/07/10 03:36:46;;;;;;;3.13;1.27;;;13.20;99.90;;;;;;5070738;28;20349;-86
2022/07/10 03:39:12;;;;;;;2.17;1.13;;;13.20;99.90;;;;;;5038450;28;20139;-86
2022/07/10 03:41:40;;;;;;;1.83;1.42;;;13.20;99.90;;;;;;5037559;28;20048;-86
2022/07/10 03:44:06;;;;;;;1.58;1.00;;;13.30;99.90;;;;;;5037977;28;20044;-85
2022/07/10 03:46:32;;;;;;;3.97;1.00;;;13.30;99.90;;;;;;5037549;28;20110;-85
2022/07/10 03:48:58;;;;;;;3.20;1.60;;;13.30;99.90;;;;;;5071209;28;20136;-86
2022/07/10 03:51:23;;;;;;;1.17;1.07;;;13.30;99.90;;;;;;5037469;28;20045;-88
2022/07/10 03:53:49;;;;;;;3.03;1.83;;;12.60;99.90;;;;;;5037843;28;20287;-87
2022/07/10 03:57:53;;;;;;;2.30;1.03;;;13.30;99.90;;;;;;5021329;28;20044;-87
2022/07/10 03:59:00;;;;;;;3.28;1.95;;;13.30;99.90;;;;;;5054299;28;20048;-87
2022/07/10 04:01:26;;;;;;;1.90;1.17;;;13.20;99.90;;;;;;5020747;28;20103;-87
2022/07/10 04:03:52;;;;;;;3.17;1.10;;;13.30;99.90;;;;;;5037631;28;20048;-86
2022/07/10 04:06:18;;;;;;;4.73;1.87;;;13.40;99.90;;;;;;5040045;28;20052;-87
2022/07/10 04:08:43;;;;;;;5.13;1.30;;;13.40;99.90;;;;;;5057492;28;20047;-87
2022/07/10 04:11:09;;;;;;;2.10;1.70;;;13.40;99.90;;;;;;5041695;28;20495;-86
2022/07/10 04:13:35;;;;;;;3.50;1.10;;;13.40;99.90;;;;;;5057486;28;20398;-86
2022/07/10 04:16:02;;;;;;;5.80;1.03;;;13.40;99.90;;;;;;5041000;28;20120;-87
2022/07/10 04:18:28;;;;;;;4.85;1.10;;;13.50;99.90;;;;;;5057416;28;20048;-87
2022/07/10 04:20:54;;;;;;;4.37;1.40;;;13.40;99.90;;;;;;5041405;28;20379;-86
2022/07/10 04:23:19;;;;;;;3.20;1.10;;;13.50;99.90;;;;;;5041325;28;20067;-87
2022/07/10 04:25:45;;;;;;;3.70;0.97;;;13.50;99.90;;;;;;5073834;28;20482;-87
2022/07/10 04:28:11;;;;;;;0.73;0.73;;;13.50;99.90;;;;;;5057704;28;20405;-87
2022/07/10 04:30:36;;;;;;;4.53;1.27;;;13.50;99.90;;;;;;5074026;28;20040;-87
2022/07/10 04:33:05;;;;;;;2.57;1.10;;;13.60;99.90;;;;;;5041096;28;20091;-87
2022/07/10 04:35:32;;;;;;;6.22;1.85;;;13.60;99.90;;;;;;5040255;28;20547;-87
2022/07/10 04:38:00;;;;;;;1.60;1.20;;;13.60;99.90;;;;;;5040466;28;20056;-87
2022/07/10 04:40:26;;;;;;;7.38;1.40;;;13.60;99.90;;;;;;5040812;28;20501;-87
2022/07/10 04:42:54;;;;;;;1.73;1.30;;;13.70;99.90;;;;;;5073364;28;20052;-87
2022/07/10 04:45:20;;;;;;;2.35;1.30;;;13.70;99.90;;;;;;5024341;28;20102;-87
2022/07/10 04:47:46;;;;;;;1.88;1.20;;;13.70;99.90;;;;;;5024052;28;20041;-87
2022/07/10 04:50:12;;;;;;;2.93;1.60;;;13.70;99.90;;;;;;5040727;28;20057;-87
2022/07/10 04:52:38;;;;;;;2.63;1.10;;;13.80;99.90;;;;;;5040197;28;20075;-87
2022/07/10 04:55:04;;;;;;;1.30;1.20;;;13.70;99.90;;;;;;5024236;28;20099;-87
2022/07/10 04:57:30;;;;;;;2.78;1.35;;;13.80;99.90;;;;;;5073341;28;20559;-88
2022/07/10 04:59:56;;;;;;;1.30;1.20;;;13.80;99.90;;;;;;5040294;28;20080;-87
2022/07/10 05:02:22;;;;;;;5.25;1.20;;;13.90;99.90;;;;;;5040584;28;20444;-87
2022/07/10 05:04:48;;;;;;;3.53;0.90;;;13.90;99.90;;;;;;5039866;28;20474;-87
2022/07/10 05:07:16;;;;;;;3.47;1.20;;;14.00;99.90;;;;;;5040552;28;20084;-87
2022/07/10 05:09:42;;;;;;;2.75;1.33;;;14.00;99.90;;;;;;5056428;28;20474;-87
2022/07/10 05:12:08;;;;;;;3.00;1.20;;;14.00;99.90;;;;;;5040157;28;20083;-86
2022/07/10 05:14:34;;;;;;;2.63;1.33;;;14.00;99.90;;;;;;5023504;28;20041;-88
2022/07/10 05:16:59;;;;;;;1.30;1.10;;;13.10;99.90;;;;;;5072449;28;20041;-86
2022/07/10 05:19:27;;;;;;;3.63;1.50;;;14.10;99.90;;;;;;5039910;28;20037;-86
2022/07/10 05:21:53;;;;;;;6.13;2.40;;;14.20;99.90;;;;;;5056416;28;20113;-87
2022/07/10 05:24:18;;;;;;;6.00;1.87;;;14.30;99.90;;;;;;5023597;28;20503;-86
2022/07/10 05:26:44;;;;;;;1.37;0.97;;;14.30;99.90;;;;;;5039360;28;20056;-88
2022/07/10 05:29:10;;;;;;;2.27;1.30;;;14.30;99.90;;;;;;5056445;28;20059;-86
2022/07/10 05:31:36;;;;;;;3.50;1.70;;;14.30;99.90;;;;;;5039423;28;20287;-88
2022/07/10 05:34:01;;;;;;;6.83;1.57;;;14.30;99.90;;;;;;5073228;28;20469;-86
2022/07/10 05:36:27;;;;;;;1.50;1.40;;;14.40;99.90;;;;;;5022897;28;20040;-86
2022/07/10 05:38:53;;;;;;;2.13;1.47;;;14.40;99.90;;;;;;5039414;28;20475;-87
2022/07/10 05:41:18;;;;;;;1.77;1.17;;;14.40;99.90;;;;;;5022956;28;20490;-86
2022/07/10 05:43:44;;;;;;;1.30;1.17;;;14.40;99.90;;;;;;5022942;28;20048;-87
2022/07/10 05:46:10;;;;;;;5.93;1.47;;;14.40;99.90;;;;;;5056357;28;20048;-86
2022/07/10 05:48:36;;;;;;;3.47;1.80;;;14.50;99.90;;;;;;5039631;28;20482;-87
2022/07/10 05:51:02;;;;;;;7.70;1.47;;;14.50;99.90;;;;;;5038960;28;20540;-87
2022/07/10 05:53:27;;;;;;;4.15;1.60;;;14.50;99.90;;;;;;5056124;28;20041;-87
2022/07/10 05:55:53;;;;;;;4.03;1.87;;;14.50;99.90;;;;;;5038955;28;20075;-87
2022/07/10 05:58:19;;;;;;;3.10;1.40;;;14.60;99.90;;;;;;5022976;28;20375;-86
2022/07/10 06:00:45;;;;;;;2.03;1.50;;;14.60;99.90;;;;;;5022591;28;20047;-87
2022/07/10 06:03:11;;;;;;;5.13;1.83;;;14.60;99.90;;;;;;5072560;28;20131;-86
2022/07/10 06:05:41;;;;;;;4.18;1.38;;;14.60;99.90;;;;;;5038935;28;20052;-86
2022/07/10 06:08:06;;;;;;;3.17;1.38;;;14.60;99.90;;;;;;5072571;28;20051;-86
2022/07/10 06:10:32;;;;;;;4.23;1.83;;;14.70;99.90;;;;;;5072179;28;20397;-86
2022/07/10 06:12:58;;;;;;;3.80;1.63;;;14.70;99.90;;;;;;5038737;28;20137;-86
2022/07/10 06:15:24;;;;;;;5.87;1.40;;;14.70;99.90;;;;;;5039253;28;20045;-86
2022/07/10 06:17:49;;;;;;;5.60;1.43;;;14.70;99.90;;;;;;5071542;28;20049;-86
2022/07/10 06:20:15;;;;;;;2.47;1.33;;;14.70;99.90;;;;;;5038991;28;20055;-86
2022/07/10 06:22:41;;;;;;;5.83;1.63;;;14.80;99.90;;;;;;5055269;28;20048;-88
2022/07/10 06:25:08;;;;;;;4.30;3.03;;;14.80;99.90;;;;;;5071442;28;20297;-87
2022/07/10 06:27:34;;;;;;;1.45;1.33;;;14.80;99.90;;;;;;5039186;28;20453;-86
2022/07/10 06:30:00;;;;;;;5.38;1.73;;;14.80;99.90;;;;;;5022081;28;20048;-86
2022/07/10 06:32:26;;;;;;;3.97;1.30;;;14.80;99.90;;;;;;5038793;28;20041;-87
2022/07/10 06:34:53;;;;;;;7.45;1.50;;;14.80;99.90;;;;;;5038862;28;20135;-85
2022/07/10 06:37:19;;;;;;;2.10;1.45;;;14.90;99.90;;;;;;5070673;28;20112;-84
2022/07/10 06:39:47;;;;;;;3.65;1.90;;;14.80;99.90;;;;;;5038166;28;20402;-88
2022/07/10 06:42:13;;;;;;;2.92;1.55;;;14.80;99.90;;;;;;5022416;28;20078;-84
2022/07/10 06:44:40;;;;;;;1.92;1.25;;;14.80;99.90;;;;;;5037934;28;20049;-84
2022/07/10 06:49:52;;;;;;;2.97;1.52;;;14.70;99.90;;;;;;5040818;28;20092;-85
2022/07/10 06:52:18;;;;;;;2.35;1.35;;;14.70;99.90;;;;;;5054893;28;20052;-86
2022/07/10 06:54:44;;;;;;;1.87;1.37;;;14.70;99.90;;;;;;5038460;28;20097;-85
2022/07/10 06:57:10;;;;;;;1.83;1.30;;;14.80;99.90;;;;;;5053999;28;20047;-90
2022/07/10 06:59:37;;;;;;;4.82;1.52;;;14.80;99.90;;;;;;5021632;28;20048;-89
2022/07/10 07:02:04;;;;;;;2.63;1.43;;;14.80;99.90;;;;;;5037642;28;20044;-88
2022/07/10 07:04:30;;;;;;;3.97;1.92;;;14.80;99.90;;;;;;5054116;28;20045;-89
2022/07/10 07:06:56;;;;;;;1.80;1.70;;;14.90;99.90;;;;;;5037918;28;20048;-89
2022/07/10 07:09:25;;;;;;;4.27;1.67;;;14.90;99.90;;;;;;5054692;28;20055;-87
2022/07/10 07:11:50;;;;;;;1.80;1.48;;;14.90;99.90;;;;;;5036974;28;20057;-89
2022/07/10 07:14:17;;;;;;;4.03;1.90;;;15.00;99.90;;;;;;5038401;28;20044;-89
2022/07/10 07:16:44;;;;;;;1.17;1.02;;;15.00;99.90;;;;;;5021293;28;20098;-87
2022/07/10 07:19:11;;;;;;;1.63;1.52;;;15.10;99.90;;;;;;5037475;28;20390;-87
2022/07/10 07:24:21;;;;;;;2.15;0.88;;;15.20;99.90;;;;;;5055014;28;19920;-86
2022/07/10 07:26:47;;;;;;;3.75;2.58;;;15.20;99.90;;;;;;5037447;28;20053;-85
2022/07/10 07:29:14;;;;;;;5.10;1.15;;;15.30;99.90;;;;;;5054104;28;20044;-85
2022/07/10 07:31:40;;;;;;;2.10;1.48;;;15.40;99.90;;;;;;5020959;28;20056;-85
2022/07/10 07:34:06;;;;;;;2.87;1.40;;;15.40;99.90;;;;;;5037621;28;20097;-85
2022/07/10 07:36:32;;;;;;;2.00;1.07;;;15.40;99.90;;;;;;5071113;28;20044;-84
2022/07/10 07:38:57;;;;;;;2.80;1.67;;;15.40;99.90;;;;;;5070568;28;20794;-84
2022/07/10 07:41:23;;;;;;;2.13;0.70;;;15.40;99.90;;;;;;5057133;28;20054;-84
2022/07/10 07:43:49;;;;;;;2.27;1.33;;;15.50;99.90;;;;;;5041547;28;20040;-84
2022/07/10 07:46:15;;;;;;;1.42;0.90;;;15.50;99.90;;;;;;5041351;28;20080;-83
2022/07/10 07:48:41;;;;;;;1.95;0.82;;;15.50;99.90;;;;;;5025627;28;20048;-83
2022/07/10 07:51:07;;;;;;;3.47;2.08;;;15.40;99.90;;;;;;5025082;28;20504;-83
2022/07/10 07:53:33;;;;;;;1.20;1.10;;;15.40;99.90;;;;;;5025497;28;20052;-83
2022/07/10 07:55:59;;;;;;;1.37;1.07;;;15.40;99.90;;;;;;5041080;28;20094;-84
2022/07/10 07:58:25;;;;;;;1.92;1.02;;;15.50;99.90;;;;;;5074245;28;20123;-86
2022/07/10 08:00:51;;;;;;;1.53;0.90;;;15.60;99.90;;;;;;5057720;28;20040;-86
2022/07/10 08:03:16;;;;;;;0.83;0.53;;;15.50;99.90;;;;;;5056725;28;20343;-85
2022/07/10 08:05:42;;;;;;;3.67;0.95;;;15.60;99.90;;;;;;5023797;28;20482;-84
2022/07/10 08:08:09;;;;;;;1.38;1.08;;;15.50;99.90;;;;;;5057388;28;20048;-84
2022/07/10 08:10:36;;;;;;;0.88;0.80;;;15.50;99.90;;;;;;5074793;28;20041;-84
2022/07/10 08:13:02;;;;;;;0.73;0.73;;;15.50;99.90;;;;;;5073731;28;20173;-84
2022/07/10 08:15:29;;;;;;;5.38;0.77;;;15.40;99.90;;;;;;5024515;28;20051;-84
2022/07/10 08:17:56;;;;;;;3.40;0.80;;;15.40;99.90;;;;;;5040034;28;20040;-85
2022/07/10 08:20:24;;;;;;;0.60;0.60;;;15.40;99.90;;;;;;5040363;28;20063;-84
2022/07/10 08:22:51;;;;;;;1.08;1.00;;;15.40;99.90;;;;;;5057819;28;20048;-84
2022/07/10 08:25:17;;;;;;;2.17;0.80;;;15.30;99.90;;;;;;5040305;28;20048;-84
2022/07/10 08:27:42;;;;;;;2.58;1.80;;;15.40;99.90;;;;;;5058016;28;20428;-84
2022/07/10 08:30:09;;;;;;;3.13;1.20;;;15.50;99.90;;;;;;5039759;28;20052;-85
2022/07/10 08:32:36;;;;;;;0.70;0.60;;;15.50;99.90;;;;;;5024002;28;20052;-84
2022/07/10 08:35:02;;;;;;;3.38;0.93;;;15.50;99.90;;;;;;5056575;28;20384;-85
2022/07/10 08:37:28;;;;;;;7.35;1.85;;;15.60;99.90;;;;;;5040180;28;20136;-84
2022/07/10 08:39:54;;;;;;;2.00;0.88;;;15.60;99.90;;;;;;5074192;28;20140;-87
2022/07/10 08:42:20;;;;;;;3.40;1.60;;;15.60;99.90;;;;;;5056487;28;20059;-86
2022/07/10 08:44:46;;;;;;;5.15;1.08;;;15.60;99.90;;;;;;5024226;28;20131;-86
2022/07/10 08:47:13;;;;;;;0.50;0.50;;;15.60;99.90;;;;;;5039974;28;20138;-86
2022/07/10 08:49:48;;;;;;;1.73;0.77;;;15.70;99.90;;;;;;5075176;28;20040;-87
2022/07/10 08:52:55;;;;;;;1.23;1.13;;;15.70;99.90;;;;;;5055828;28;20078;-86
2022/07/10 08:55:25;;;;;;;1.25;1.10;;;15.70;99.90;;;;;;5040484;28;20056;-89
2022/07/10 08:57:52;;;;;;;2.83;2.25;;;15.70;99.90;;;;;;5073256;28;20045;-85
2022/07/10 09:00:17;;;;;;;;;;;15.80;99.90;;;;;;5072998;28;20048;-84
2022/07/10 09:02:43;;;;;;;2.08;0.80;;;15.80;99.90;;;;;;5072205;28;19921;-85
2022/07/10 09:05:09;;;;;;;0.80;0.60;;;15.80;99.90;;;;;;5039566;28;20110;-84
2022/07/10 09:07:36;;;;;;;1.30;0.60;;;15.70;99.90;;;;;;5074321;28;20290;-85
2022/07/10 09:10:07;;;;;;;0.38;0.38;;;15.70;99.90;;;;;;5073055;28;20058;-84
2022/07/10 09:13:03;;;;;;;2.65;0.73;;;15.70;99.90;;;;;;5040020;28;20123;-85
2022/07/10 09:15:32;;;;;;;1.42;0.65;;;15.60;99.90;;;;;;5072542;28;20048;-84
2022/07/10 09:18:05;;;;;;;1.50;0.60;;;15.60;99.90;;;;;;5072801;28;20045;-84
2022/07/10 09:20:34;;;;;;;0.40;0.40;;;15.60;99.90;;;;;;5072288;28;20475;-86
2022/07/10 09:23:20;;;;;;;0.57;0.55;;;15.60;99.90;;;;;;5073806;28;20048;-86
2022/07/10 09:25:53;;;;;;;1.58;0.75;;;15.60;99.90;;;;;;5055789;28;20165;-85
2022/07/10 09:28:21;;;;;;;2.20;0.90;;;15.60;99.90;;;;;;5073450;28;20061;-85
2022/07/10 09:30:48;;;;;;;1.38;1.10;;;15.70;99.90;;;;;;5074218;28;20075;-87
2022/07/10 09:33:19;;;;;;;0.77;0.50;;;15.70;99.90;;;;;;5056129;28;20088;-87
2022/07/10 09:36:04;;;;;;;1.77;1.15;;;15.80;99.90;;;;;;5023648;28;20079;-87
2022/07/10 09:38:46;;;;;;;0.52;0.52;;;15.80;99.90;;;;;;5039752;28;20398;-86
2022/07/10 09:41:16;;;;;;;2.17;0.60;;;16.40;99.90;;;;;;5073004;28;20188;-87
2022/07/10 09:43:48;;;;;;;1.00;0.70;;;15.80;99.90;;;;;;5040070;28;20052;-86
2022/07/10 09:46:14;;;;;;;4.32;0.70;;;15.90;99.90;;;;;;5039541;28;20045;-87
2022/07/10 09:48:41;;;;;;;1.85;0.57;;;15.90;99.90;;;;;;5039996;28;20367;-87
2022/07/10 09:51:10;;;;;;;0.65;0.55;;;15.90;99.90;;;;;;5039826;28;20088;-87
2022/07/10 09:53:44;;;;;;;0.43;0.43;;;15.80;99.90;;;;;;5072969;28;20048;-87
2022/07/10 09:56:11;;;;;;;1.27;0.80;;;15.80;99.90;;;;;;5072990;28;20394;-87
2022/07/10 09:58:38;;;;;;;0.73;0.70;;;15.80;99.90;;;;;;5039579;28;20051;-86
2022/07/10 10:01:08;;;;;;;1.02;0.85;;;15.70;99.90;;;;;;5072833;28;20116;-86
2022/07/10 10:03:38;;;;;;;1.92;1.40;;;15.70;99.90;;;;;;5022968;28;20056;-87
2022/07/10 10:06:18;;;;;;;1.83;0.88;;;15.70;99.90;;;;;;5039382;28;20539;-86
2022/07/10 10:09:07;;;;;;;1.35;0.73;;;15.70;99.90;;;;;;5039525;28;20398;-87
2022/07/10 10:11:36;;;;;;;0.82;0.55;;;15.70;99.90;;;;;;5072391;28;20053;-87
2022/07/10 10:14:03;;;;;;;0.85;0.73;;;14.90;99.90;;;;;;5055688;28;20558;-87
2022/07/10 10:16:30;;;;;;;0.93;0.93;;;15.60;99.90;;;;;;5038942;28;20044;-87
2022/07/10 10:21:41;;;;;;;1.15;0.80;;;15.80;99.90;;;;;;5055902;28;20399;-88
2022/07/10 10:24:07;;;;;;;0.83;0.70;;;15.70;99.90;;;;;;5072563;28;20040;-87
2022/07/10 10:26:33;;;;;;;1.17;0.93;;;15.80;99.90;;;;;;5071930;28;20302;-87
2022/07/10 10:29:04;;;;;;;0.95;0.95;;;15.80;99.90;;;;;;5039073;28;20119;-87
2022/07/10 10:31:31;;;;;;;1.13;0.88;;;15.90;99.90;;;;;;5072179;28;20052;-87
2022/07/10 10:33:57;;;;;;;;;;;15.90;99.90;;;;;;5056213;28;20110;-87
2022/07/10 10:36:41;;;;;;;0.60;0.60;;;16.00;99.90;;;;;;5055618;28;19974;-87
2022/07/10 10:39:21;;;;;;;1.40;1.00;;;16.10;99.90;;;;;;5072421;28;20502;-87
2022/07/10 10:41:52;;;;;;;1.77;1.15;;;16.20;99.90;;;;;;5072265;28;20048;-87
2022/07/10 10:44:17;;;;;;;1.77;1.17;;;16.20;99.90;;;;;;5072217;28;20098;-90
2022/07/10 10:47:10;;;;;;;1.90;1.47;;;16.30;99.90;;;;;;5038806;28;20041;-87
2022/07/10 10:49:50;;;;;;;1.45;1.25;;;16.40;99.90;;;;;;5038708;28;20048;-87
2022/07/10 10:52:19;;;;;;;1.42;1.33;;;16.40;99.90;;;;;;5038645;28;20055;-87
2022/07/10 10:54:57;;;;;;;3.40;1.35;;;16.40;99.90;;;;;;5071991;28;20036;-87
2022/07/10 10:57:32;;;;;;;3.60;1.00;;;16.40;99.90;;;;;;5071426;28;20051;-87
2022/07/10 10:59:59;;;;;;;2.92;1.83;;;16.40;99.90;;;;;;5071954;28;20500;-87
2022/07/10 11:02:34;;;;;;;2.55;1.25;;;16.40;99.90;;;;;;5037900;28;20044;-87
2022/07/10 11:05:19;;;;;;;3.80;1.70;;;16.30;99.90;;;;;;5038904;28;20044;-88
2022/07/10 11:07:54;;;;;;;1.35;1.00;;;16.30;99.90;;;;;;5071743;28;20510;-87
2022/07/10 11:10:29;;;;;;;1.95;1.27;;;16.30;99.90;;;;;;5055131;28;20462;-91
2022/07/10 11:13:03;;;;;;;3.17;1.23;;;16.30;99.90;;;;;;5038308;28;20048;-87
2022/07/10 11:15:32;;;;;;;3.40;1.65;;;16.30;99.90;;;;;;5037570;28;20110;-87
2022/07/10 11:18:21;;;;;;;2.30;1.20;;;16.30;99.90;;;;;;5054703;28;20127;-87
2022/07/10 11:20:49;;;;;;;7.53;2.63;;;16.50;99.90;;;;;;5038278;28;20044;-87
2022/07/10 11:23:41;;;;;;;1.67;1.25;;;16.50;99.90;;;;;;5071062;28;20048;-87
2022/07/10 11:26:11;;;;;;;2.67;1.88;;;16.60;99.90;;;;;;5050506;28;20053;-87
2022/07/10 11:28:59;;;;;;;4.20;2.10;;;16.70;99.90;;;;;;5037584;28;20487;-87
2022/07/10 11:31:27;;;;;;;4.65;1.90;;;16.80;99.90;;;;;;5071254;28;20048;-88
2022/07/10 11:33:54;;;;;;;1.75;1.65;;;16.90;99.90;;;;;;5038324;28;20449;-86
2022/07/10 11:36:32;;;;;;;4.88;1.90;;;16.90;99.90;;;;;;5071332;28;20041;-87
2022/07/10 11:39:06;;;;;;;5.32;1.75;;;17.00;99.90;;;;;;5038142;28;20106;-86
2022/07/10 11:41:32;;;;;;;2.17;1.02;;;17.00;99.90;;;;;;5037607;28;20048;-87
2022/07/10 11:44:03;;;;;;;4.18;1.40;;;17.00;99.90;;;;;;5054773;28;20045;-87
2022/07/10 11:46:31;;;;;;;1.65;1.27;;;17.00;99.90;;;;;;5037615;28;20389;-87
2022/07/10 11:48:58;;;;;;;3.45;1.40;;;17.00;99.90;;;;;;5071636;28;20045;-87
2022/07/10 11:51:31;;;;;;;1.05;0.95;;;17.00;99.90;;;;;;5037881;28;20549;-87
2022/07/10 11:54:10;;;;;;;3.72;1.48;;;17.00;99.90;;;;;;5037996;28;20053;-87
2022/07/10 11:56:39;;;;;;;1.88;1.30;;;17.00;99.90;;;;;;5070873;28;20059;-87
2022/07/10 11:59:11;;;;;;;1.05;0.80;;;17.00;99.90;;;;;;5071570;28;20086;-88
2022/07/10 12:01:47;;;;;;;1.35;1.25;;;16.90;99.90;;;;;;5054175;28;20060;-88
2022/07/10 12:04:15;;;;;;;2.58;1.83;;;16.80;99.90;;;;;;5037808;28;20048;-88
2022/07/10 12:06:44;;;;;;;2.28;0.88;;;16.80;99.90;;;;;;5037596;28;20059;-88
2022/07/10 12:09:12;;;;;;;3.60;2.22;;;16.80;99.90;;;;;;5038292;28;20048;-88
2022/07/10 12:11:38;;;;;;;3.17;1.10;;;16.80;99.90;;;;;;5070932;28;20427;-87
2022/07/10 12:14:22;;;;;;;1.23;1.10;;;16.80;99.90;;;;;;5037841;28;20048;-87
2022/07/10 12:16:52;;;;;;;2.15;1.58;;;16.90;99.90;;;;;;5070545;28;20087;-88
2022/07/10 12:19:21;;;;;;;1.33;0.93;;;16.90;99.90;;;;;;5021788;28;20048;-87
2022/07/10 12:21:47;;;;;;;4.30;1.35;;;16.90;99.90;;;;;;5037509;28;20044;-89
2022/07/10 12:24:16;;;;;;;1.63;1.25;;;16.80;99.90;;;;;;5037733;28;20041;-90
2022/07/10 12:26:46;;;;;;;4.75;1.60;;;16.70;99.90;;;;;;5052911;28;20061;-90
2022/07/10 12:29:21;;;;;;;1.60;1.15;;;16.60;99.90;;;;;;5018918;28;20072;-90
2022/07/10 12:31:50;;;;;;;5.00;1.33;;;16.60;99.90;;;;;;5034321;28;20046;-89
2022/07/10 12:34:22;;;;;;;1.88;1.70;;;16.50;99.90;;;;;;5034789;28;20144;-90
2022/07/10 12:36:53;;;;;;;1.80;1.70;;;16.50;99.90;;;;;;5051037;28;20045;-90
2022/07/10 12:39:25;;;;;;;1.13;0.90;;;16.40;99.90;;;;;;5034882;28;20171;-91
2022/07/10 12:42:02;;;;;;;1.10;1.00;;;16.40;99.90;;;;;;5034417;28;20587;-90
2022/07/10 12:44:41;;;;;;;;;;;16.40;99.90;;;;;;5034754;28;20602;-89
2022/07/10 12:47:12;;;;;;;2.47;1.30;;;16.30;99.90;;;;;;5034672;28;20020;-90
2022/07/10 12:49:56;;;;;;;5.60;2.05;;;16.30;99.90;;;;;;5051110;28;20049;-90
2022/07/10 12:52:28;;;;;;;3.65;1.27;;;16.20;99.90;;;;;;5034700;28;20049;-90
2022/07/10 12:55:09;;;;;;;4.90;1.83;;;16.20;99.90;;;;;;5050728;28;20041;-89
2022/07/10 12:58:05;;;;;;;2.95;1.50;;;16.20;99.90;;;;;;5050566;28;20050;-91
2022/07/10 13:00:34;;;;;;;1.88;1.38;;;16.30;99.90;;;;;;5029547;28;20134;-89
2022/07/10 13:03:04;;;;;;;1.63;1.33;;;16.30;99.90;;;;;;5034139;28;20049;-89
2022/07/10 13:05:41;;;;;;;2.53;1.10;;;16.30;99.90;;;;;;5050858;28;20049;-89